Time;durP1;ratioP1;P1;durP2;ratioP2;P2;SDS_P1;SDS_P2;PMS_P1;PMS_P2;Temp;Humidity;BMP_temperature;BMP_pressure;BME280_temperature;BME280_humidity;BME280_pressure;Samples;Min_cycle;Max_cycle;Signal;HPM_P1;HPM_P2
2022/11/19 00:01:29;;;;;;;7.1;14.6;;;;;;;-0.7;79.1;97970;;;;
2022/11/19 00:21:29;;;;;;;6.5;13.6;;;;;;;-0.8;78.7;97970;;;;
2022/11/19 00:32:30;;;;;;;6.5;13.6;;;;;;;-0.9;78.7;97990;;;;
2022/11/19 00:44:01;;;;;;;5.8;12.7;;;;;;;-0.8;79.2;97990;;;;
2022/11/19 00:54:29;;;;;;;5.8;12.7;;;;;;;-0.8;79.4;97980;;;;
2022/11/19 01:04:29;;;;;;;5.8;12.7;;;;;;;-0.9;79.4;97990;;;;
2022/11/19 01:15:29;;;;;;;6.8;12.3;;;;;;;-0.9;79.1;98000;;;;
2022/11/19 01:26:29;;;;;;;6.8;12.3;;;;;;;-0.8;79.1;98000;;;;
2022/11/19 01:36:29;;;;;;;6.8;12.3;;;;;;;-0.7;79.2;98000;;;;
2022/11/19 01:47:29;;;;;;;4.6;9.6;;;;;;;-0.7;79.1;98010;;;;
2022/11/19 01:57:29;;;;;;;4.6;9.6;;;;;;;-0.8;79.4;98020;;;;
2022/11/19 02:08:29;;;;;;;4.6;9.6;;;;;;;-0.7;80.1;98020;;;;
2022/11/19 02:18:29;;;;;;;5.3;9.1;;;;;;;-0.7;80.5;98040;;;;
2022/11/19 02:28:29;;;;;;;5.3;9.1;;;;;;;-0.7;80.6;98050;;;;
2022/11/19 02:39:29;;;;;;;5.3;10.1;;;;;;;-0.7;79;98070;;;;
2022/11/19 02:49:29;;;;;;;5.3;10.1;;;;;;;-0.7;78.5;98070;;;;
2022/11/19 03:10:29;;;;;;;6.5;12.4;;;;;;;-0.8;77.5;98110;;;;
2022/11/19 03:21:29;;;;;;;6.5;12.4;;;;;;;-0.8;78.4;98110;;;;
2022/11/19 03:31:29;;;;;;;6.5;12.4;;;;;;;-0.7;78.6;98100;;;;
2022/11/19 03:42:29;;;;;;;8.1;14.6;;;;;;;-0.7;78.5;98110;;;;
2022/11/19 03:53:29;;;;;;;8.1;14.6;;;;;;;-0.7;78.5;98120;;;;
2022/11/19 04:03:29;;;;;;;8.1;14.6;;;;;;;-0.8;78.6;98130;;;;
2022/11/19 04:14:29;;;;;;;7;14.2;;;;;;;-0.8;78.8;98150;;;;
2022/11/19 04:24:29;;;;;;;7;14.2;;;;;;;-1;78.6;98150;;;;
2022/11/19 04:35:29;;;;;;;7;14.2;;;;;;;-1.1;79.1;98150;;;;
2022/11/19 04:45:29;;;;;;;6.4;10.6;;;;;;;-1;79.4;98170;;;;
2022/11/19 04:55:29;;;;;;;6.4;10.6;;;;;;;-1;79.5;98180;;;;
2022/11/19 05:06:29;;;;;;;6.4;10.6;;;;;;;-0.9;79.6;98190;;;;
2022/11/19 05:17:29;;;;;;;7.5;13.3;;;;;;;-1;80.4;98210;;;;
2022/11/19 05:27:29;;;;;;;7.5;13.3;;;;;;;-1;80.9;98240;;;;
2022/11/19 05:37:29;;;;;;;7.5;13.3;;;;;;;-0.9;81.2;98250;;;;
2022/11/19 05:48:29;;;;;;;6.5;12.6;;;;;;;-0.9;80.8;98260;;;;
2022/11/19 05:59:29;;;;;;;6.5;12.6;;;;;;;-0.9;80.9;98270;;;;
2022/11/19 06:09:29;;;;;;;5.7;11.4;;;;;;;-0.9;81.2;98290;;;;
2022/11/19 06:19:29;;;;;;;5.7;11.4;;;;;;;-0.9;81.4;98310;;;;
2022/11/19 06:30:29;;;;;;;5.7;11.4;;;;;;;-1.1;81.1;98320;;;;
2022/11/19 06:41:29;;;;;;;5.9;10.5;;;;;;;-1.3;81.5;98340;;;;
2022/11/19 06:52:29;;;;;;;5.9;10.5;;;;;;;-1.3;81.6;98360;;;;
2022/11/19 07:02:29;;;;;;;5.9;10.5;;;;;;;-1.4;81.6;98370;;;;
2022/11/19 07:13:56;;;;;;;7.6;12.3;;;;;;;-1.5;81.1;98380;;;;
2022/11/19 07:23:29;;;;;;;7.6;12.3;;;;;;;-1.5;81.4;98390;;;;
2022/11/19 07:33:29;;;;;;;7.6;12.3;;;;;;;-1.5;81.6;98390;;;;
2022/11/19 07:44:29;;;;;;;9;14.9;;;;;;;-1.3;81.5;98400;;;;
2022/11/19 07:55:29;;;;;;;9;14.9;;;;;;;-0.8;81.4;98400;;;;
2022/11/19 08:06:29;;;;;;;9;14.9;;;;;;;-0.1;80.1;98410;;;;
2022/11/19 08:27:29;;;;;;;;;;;;;;;1.5;;98400;;;;
2022/11/19 08:38:29;;;;;;;11.8;21.3;;;;;;;1.5;73.5;98410;;;;
2022/11/19 08:49:29;;;;;;;11.8;21.3;;;;;;;0.6;74.6;98420;;;;
2022/11/19 08:59:29;;;;;;;11.8;21.3;;;;;;;0.3;75.9;98430;;;;
2022/11/19 09:09:29;;;;;;;12.7;23.7;;;;;;;-0.2;77;98440;;;;
2022/11/19 09:19:29;;;;;;;12.7;23.7;;;;;;;-0.2;77.3;98440;;;;
2022/11/19 09:30:29;;;;;;;12.7;23.7;;;;;;;0.2;76;98450;;;;
2022/11/19 09:40:29;;;;;;;9.5;19.3;;;;;;;0.3;71.4;98440;;;;
2022/11/19 09:50:29;;;;;;;9.5;19.3;;;;;;;0.8;70.9;98450;;;;
2022/11/19 10:01:31;;;;;;;9.5;19.3;;;;;;;1;68;98450;;;;
2022/11/19 10:11:29;;;;;;;6.6;12.9;;;;;;;0.8;65.5;98450;;;;
2022/11/19 10:22:29;;;;;;;6.6;12.9;;;;;;;0.7;65.8;98450;;;;
2022/11/19 10:33:29;;;;;;;6.6;12.9;;;;;;;1;68.1;98450;;;;
2022/11/19 10:44:37;;;;;;;5.3;11.5;;;;;;;1.5;64.1;98440;;;;
2022/11/19 10:55:30;;;;;;;5.3;11.5;;;;;;;1.7;62;98440;;;;
2022/11/19 11:06:30;;;;;;;5.3;11.5;;;;;;;1.7;62.8;98430;;;;
2022/11/19 11:16:29;;;;;;;5.7;9.9;;;;;;;1.6;64.1;98430;;;;
2022/11/19 11:26:30;;;;;;;5.7;9.9;;;;;;;1.3;63.8;98440;;;;
2022/11/19 11:37:30;;;;;;;7.3;14.4;;;;;;;1.2;62.6;98440;;;;
2022/11/19 11:47:29;;;;;;;7.3;14.4;;;;;;;1.1;61.6;98450;;;;
2022/11/19 11:58:29;;;;;;;7.3;14.4;;;;;;;1.2;63.4;98450;;;;
2022/11/19 12:08:29;;;;;;;6.8;14;;;;;;;1.3;62.2;98450;;;;
2022/11/19 12:19:29;;;;;;;6.8;14;;;;;;;2;61.5;98460;;;;
2022/11/19 12:30:29;;;;;;;6.8;14;;;;;;;2.2;63.3;98460;;;;
2022/11/19 12:40:30;;;;;;;8.4;15.7;;;;;;;2.1;62.3;98470;;;;
2022/11/19 12:51:30;;;;;;;8.4;15.7;;;;;;;1.6;63.7;98470;;;;
2022/11/19 13:02:30;;;;;;;8.4;15.7;;;;;;;1.4;65.1;98480;;;;
2022/11/19 13:13:30;;;;;;;9.2;15.1;;;;;;;1.2;65.3;98480;;;;
2022/11/19 13:23:30;;;;;;;9.2;15.1;;;;;;;0.8;65;98490;;;;
2022/11/19 13:34:29;;;;;;;9.2;15.1;;;;;;;0.7;65.9;98490;;;;
2022/11/19 13:45:30;;;;;;;8;14.6;;;;;;;0.6;66.6;98500;;;;
2022/11/19 13:55:29;;;;;;;8;14.6;;;;;;;0.6;66.8;98510;;;;
2022/11/19 14:05:29;;;;;;;8;14.6;;;;;;;0.4;66.2;98510;;;;
2022/11/19 14:26:30;;;;;;;6.9;11.1;;;;;;;-0.1;65.6;98510;;;;
2022/11/19 14:37:30;;;;;;;13.8;23.8;;;;;;;-0.4;67;98520;;;;
2022/11/19 14:48:30;;;;;;;13.8;23.8;;;;;;;-0.7;70.6;98520;;;;
2022/11/19 14:58:30;;;;;;;13.8;23.8;;;;;;;-0.9;73.1;98520;;;;
2022/11/19 15:09:29;;;;;;;13.3;25.9;;;;;;;-1;75.2;98530;;;;
2022/11/19 15:19:29;;;;;;;13.3;25.9;;;;;;;-1.1;77.5;98540;;;;
2022/11/19 15:29:30;;;;;;;13.3;25.9;;;;;;;-1.1;78.6;98540;;;;
2022/11/19 15:39:30;;;;;;;16.2;28.5;;;;;;;-1.1;79.6;98540;;;;
2022/11/19 15:50:30;;;;;;;16.2;28.5;;;;;;;-1;79.6;98540;;;;
2022/11/19 16:01:31;;;;;;;16.2;28.5;;;;;;;-1.1;80.4;98540;;;;
2022/11/19 16:22:30;;;;;;;19.9;33.8;;;;;;;-1.4;79.8;98540;;;;
2022/11/19 16:33:30;;;;;;;19.9;33.8;;;;;;;-1.6;80.2;98540;;;;
2022/11/19 16:44:30;;;;;;;17.4;29.3;;;;;;;-1.8;80.6;98540;;;;
2022/11/19 16:54:30;;;;;;;17.4;29.3;;;;;;;-1.9;81;98550;;;;
2022/11/19 17:04:30;;;;;;;17.4;29.3;;;;;;;-2;81.2;98530;;;;
2022/11/19 17:14:30;;;;;;;15.5;25;;;;;;;-2.1;81.2;98540;;;;
2022/11/19 17:24:30;;;;;;;15.5;25;;;;;;;-2.1;81.6;98530;;;;
2022/11/19 17:35:30;;;;;;;15.5;25;;;;;;;-2;82.3;98540;;;;
2022/11/19 17:45:30;;;;;;;17.9;30;;;;;;;-1.9;82.5;98550;;;;
2022/11/19 17:56:30;;;;;;;17.9;30;;;;;;;-2;83.4;98550;;;;
2022/11/19 18:07:30;;;;;;;30.2;53.2;;;;;;;-2;83.8;98550;;;;
2022/11/19 18:18:30;;;;;;;30.2;53.2;;;;;;;-2.1;83.4;98530;;;;
2022/11/19 18:29:30;;;;;;;30.2;53.2;;;;;;;-2.2;82.9;98510;;;;
2022/11/19 18:39:30;;;;;;;22.1;40.6;;;;;;;-2.4;82.8;98530;;;;
2022/11/19 18:49:32;;;;;;;22.1;40.6;;;;;;;-2.6;82.5;98520;;;;
2022/11/19 19:00:30;;;;;;;22.1;40.6;;;;;;;-2.9;83.1;98540;;;;
2022/11/19 19:10:30;;;;;;;27.6;53;;;;;;;-2.9;83.5;98540;;;;
2022/11/19 19:21:30;;;;;;;27.6;53;;;;;;;-3;83.5;98520;;;;
2022/11/19 19:31:30;;;;;;;27.6;53;;;;;;;-3.1;83.1;98520;;;;
2022/11/19 19:42:30;;;;;;;25.2;42.9;;;;;;;-3.4;83.2;98520;;;;
2022/11/19 19:52:30;;;;;;;25.2;42.9;;;;;;;-3.6;83.7;98530;;;;
2022/11/19 20:02:30;;;;;;;25.2;42.9;;;;;;;-3.8;84.8;98530;;;;
2022/11/19 20:13:26;;;;;;;27.3;49.8;;;;;;;-4;85;98530;;;;
2022/11/19 20:23:30;;;;;;;27.3;49.8;;;;;;;-4.1;85;98520;;;;
2022/11/19 20:33:31;;;;;;;27.3;49.8;;;;;;;-4.3;84.9;98530;;;;
2022/11/19 20:44:30;;;;;;;38;67.2;;;;;;;-4.4;84.8;98510;;;;
2022/11/19 20:54:31;;;;;;;38;67.2;;;;;;;-4.6;85.3;98510;;;;
2022/11/19 21:04:36;;;;;;;38;67.2;;;;;;;-4.7;85.9;98520;;;;
2022/11/19 21:15:31;;;;;;;24.8;45.9;;;;;;;-4.7;86.4;98520;;;;
2022/11/19 21:25:31;;;;;;;24.8;45.9;;;;;;;-4.8;86.3;98520;;;;
2022/11/19 21:36:31;;;;;;;27.8;50.4;;;;;;;-4.9;86.2;98530;;;;
2022/11/19 21:46:31;;;;;;;27.8;50.4;;;;;;;-5;86.1;98530;;;;
2022/11/19 21:57:31;;;;;;;27.8;50.4;;;;;;;-5;86.2;98540;;;;
2022/11/19 22:07:30;;;;;;;25.9;44.5;;;;;;;-4.9;86;98530;;;;
2022/11/19 22:17:31;;;;;;;25.9;44.5;;;;;;;-4.9;86;98530;;;;
2022/11/19 22:28:31;;;;;;;25.9;44.5;;;;;;;-5;86.4;98530;;;;
2022/11/19 22:39:30;;;;;;;30.5;53;;;;;;;-5.1;86.5;98530;;;;
2022/11/19 22:49:31;;;;;;;30.5;53;;;;;;;-5.1;86.4;98530;;;;
2022/11/19 22:59:31;;;;;;;30.5;53;;;;;;;-5.1;86.4;98530;;;;
2022/11/19 23:09:31;;;;;;;28.5;50;;;;;;;-4.9;86.8;98530;;;;
2022/11/19 23:20:31;;;;;;;28.5;50;;;;;;;-4.7;86.6;98530;;;;
2022/11/19 23:31:31;;;;;;;28.5;50;;;;;;;-4.7;86.5;98520;;;;
2022/11/19 23:41:31;;;;;;;32.4;55.1;;;;;;;-4.6;86.6;98510;;;;
2022/11/19 23:51:31;;;;;;;32.4;55.1;;;;;;;-4.7;86.1;98510;;;;
